Time;durP1;ratioP1;P1;durP2;ratioP2;P2;SDS_P1;SDS_P2;PMS_P1;PMS_P2;Temp;Humidity;BMP_temperature;BMP_pressure;BME280_temperature;BME280_humidity;BME280_pressure;Samples;Min_cycle;Max_cycle;Signal;HPM_P1;HPM_P2
2023/03/15 00:01:38;;;;;;;;;;;13.50;95.50;;;;;;5111917;28;19997;-87
2023/03/15 00:04:06;;;;;;;;;;;13.50;95.50;;;;;;5077056;28;19919;-87
2023/03/15 00:06:32;;;;;;;;;;;13.40;95.40;;;;;;5076842;28;19923;-87
2023/03/15 00:09:00;;;;;;;;;;;13.50;95.50;;;;;;5076146;28;19908;-87
2023/03/15 00:11:27;;;;;;;;;;;13.50;95.40;;;;;;5076900;28;20240;-87
2023/03/15 00:13:53;;;;;;;;;;;13.50;95.40;;;;;;5075723;28;19955;-87
2023/03/15 00:16:18;;;;;;;;;;;13.40;95.30;;;;;;5076180;28;20146;-87
2023/03/15 00:18:45;;;;;;;;;;;13.40;95.20;;;;;;5077012;28;19991;-87
2023/03/15 00:21:11;;;;;;;;;;;13.40;95.20;;;;;;5077670;28;19908;-87
2023/03/15 00:23:37;;;;;;;;;;;13.40;95.20;;;;;;5076678;28;20011;-87
2023/03/15 00:26:02;;;;;;;;;;;13.50;95.20;;;;;;5077149;28;19908;-87
2023/03/15 00:28:28;;;;;;;;;;;13.40;95.20;;;;;;5076529;28;19908;-87
2023/03/15 00:31:04;;;;;;;;;;;13.40;95.20;;;;;;5077161;28;19934;-87
2023/03/15 00:33:33;;;;;;;;;;;13.40;95.20;;;;;;5075916;28;19995;-86
2023/03/15 00:36:01;;;;;;;;;;;13.40;95.10;;;;;;5094595;28;19944;-87
2023/03/15 00:38:27;;;;;;;;;;;13.40;95.20;;;;;;5077715;28;19923;-87
2023/03/15 00:40:53;;;;;;;;;;;13.40;95.10;;;;;;5077061;28;20205;-87
2023/03/15 00:43:18;;;;;;;;;;;13.40;95.10;;;;;;5077831;28;19908;-87
2023/03/15 00:45:44;;;;;;;;;;;13.40;95.10;;;;;;5077795;28;19904;-87
2023/03/15 00:48:16;;;;;;;;;;;13.40;95.10;;;;;;5111184;28;19912;-87
2023/03/15 00:50:41;;;;;;;;;;;13.40;95.10;;;;;;5080152;28;20007;-87
2023/03/15 00:53:08;;;;;;;;;;;13.40;95.00;;;;;;5081524;28;20014;-87
2023/03/15 00:55:34;;;;;;;;;;;13.40;95.00;;;;;;5081246;28;19948;-87
2023/03/15 00:58:00;;;;;;;;;;;13.40;94.90;;;;;;5082431;28;19916;-89
2023/03/15 01:00:26;;;;;;;;;;;13.40;94.80;;;;;;5080862;28;19958;-87
2023/03/15 01:02:52;;;;;;;;;;;13.40;94.80;;;;;;5081779;28;19919;-87
2023/03/15 01:05:18;;;;;;;;;;;13.40;94.80;;;;;;5081291;28;19908;-87
2023/03/15 01:07:44;;;;;;;;;;;13.40;94.70;;;;;;5081461;28;20197;-87
2023/03/15 01:10:10;;;;;;;;;;;13.40;94.70;;;;;;5080573;28;19916;-87
2023/03/15 01:12:36;;;;;;;;;;;13.30;94.90;;;;;;5079990;28;20265;-87
2023/03/15 01:15:29;;;;;;;;;;;13.30;94.60;;;;;;5080002;28;20261;-86
2023/03/15 01:17:55;;;;;;;;;;;13.30;94.50;;;;;;5080427;28;19919;-87
2023/03/15 01:20:21;;;;;;;;;;;13.30;94.50;;;;;;5079816;28;19908;-87
2023/03/15 01:22:47;;;;;;;;;;;13.30;94.50;;;;;;5080258;28;20005;-87
2023/03/15 01:25:12;;;;;;;;;;;13.30;94.40;;;;;;5080413;28;19999;-87
2023/03/15 01:27:38;;;;;;;;;;;13.30;94.40;;;;;;5080910;28;19912;-86
2023/03/15 01:30:04;;;;;;;;;;;13.30;94.40;;;;;;5097317;28;19977;-86
2023/03/15 01:32:29;;;;;;;;;;;13.30;94.40;;;;;;5080062;28;19912;-86
2023/03/15 01:34:55;;;;;;;;;;;13.30;94.40;;;;;;5072011;28;19908;-86
2023/03/15 01:37:23;;;;;;;;;;;13.30;94.40;;;;;;5075662;28;20340;-86
2023/03/15 01:39:49;;;;;;;;;;;13.30;94.40;;;;;;5077672;28;19999;-86
2023/03/15 01:42:15;;;;;;;;;;;13.30;94.40;;;;;;5078847;28;19919;-86
2023/03/15 01:44:48;;;;;;;;;;;13.30;94.40;;;;;;5077353;28;19908;-86
2023/03/15 01:47:14;;;;;;;;;;;13.30;94.40;;;;;;5078801;28;19923;-87
2023/03/15 01:49:40;;;;;;;;;;;13.30;94.40;;;;;;5079708;28;19916;-86
2023/03/15 01:52:07;;;;;;;;;;;13.30;94.40;;;;;;5079296;28;19912;-87
2023/03/15 01:54:44;;;;;;;;;;;13.30;94.30;;;;;;5079541;28;19912;-86
2023/03/15 01:57:14;;;;;;;;;;;13.30;94.40;;;;;;5080391;28;19908;-87
2023/03/15 01:59:43;;;;;;;;;;;13.30;94.30;;;;;;5080572;28;20341;-86
2023/03/15 02:02:13;;;;;;;;;;;13.20;94.30;;;;;;5080181;28;19927;-86
2023/03/15 02:04:51;;;;;;;;;;;13.20;94.30;;;;;;5080215;28;20186;-86
2023/03/15 02:07:19;;;;;;;;;;;13.20;94.30;;;;;;5080453;28;19923;-86
2023/03/15 02:09:56;;;;;;;;;;;13.20;94.20;;;;;;5080848;28;19916;-87
2023/03/15 02:12:21;;;;;;;;;;;13.20;94.20;;;;;;5081629;28;20246;-86
2023/03/15 02:14:48;;;;;;;;;;;13.20;94.20;;;;;;5098087;28;19919;-85
2023/03/15 02:17:14;;;;;;;;;;;13.20;94.10;;;;;;5078761;28;20015;-86
2023/03/15 02:19:39;;;;;;;;;;;13.20;94.10;;;;;;5098307;28;20259;-86
2023/03/15 02:22:14;;;;;;;;;;;13.20;94.10;;;;;;5080575;28;19909;-86
2023/03/15 02:24:51;;;;;;;;;;;13.20;94.20;;;;;;5079354;28;19912;-86
2023/03/15 02:27:43;;;;;;;;;;;13.20;94.20;;;;;;5080466;28;20293;-86
2023/03/15 02:30:09;;;;;;;;;;;13.20;94.10;;;;;;5090164;28;19908;-86
2023/03/15 02:32:35;;;;;;;;;;;13.20;94.10;;;;;;5078750;28;19916;-86
2023/03/15 02:35:00;;;;;;;;;;;13.20;94.10;;;;;;5112632;28;20007;-86
2023/03/15 02:37:26;;;;;;;;;;;13.20;94.10;;;;;;5077887;28;19912;-86
2023/03/15 02:39:52;;;;;;;;;;;13.20;94.10;;;;;;5095721;28;20067;-86
2023/03/15 02:42:18;;;;;;;;;;;13.20;94.10;;;;;;5077693;28;19908;-86
2023/03/15 02:44:44;;;;;;;;;;;13.20;94.10;;;;;;5096745;28;20205;-86
2023/03/15 02:47:17;;;;;;;;;;;13.20;94.10;;;;;;5097457;28;20157;-86
2023/03/15 02:49:45;;;;;;;;;;;13.20;94.30;;;;;;5097368;28;19961;-86
2023/03/15 02:57:16;;;;;;;;;;;13.10;94.00;;;;;;5114970;28;19927;-10
2023/03/15 02:59:41;;;;;;;;;;;13.10;94.00;;;;;;5115846;28;19919;-10
2023/03/15 03:02:10;;;;;;;;;;;13.10;94.00;;;;;;5111660;27;19912;-10
2023/03/15 03:04:36;;;;;;;;;;;13.10;93.90;;;;;;5084690;28;19919;-10
2023/03/15 03:07:07;;;;;;;;;;;13.10;93.90;;;;;;5099200;28;19912;-10
2023/03/15 03:09:35;;;;;;;;;;;13.10;93.90;;;;;;5099268;28;19962;-10
2023/03/15 03:12:04;;;;;;;;;;;13.10;93.90;;;;;;5081294;28;20273;-10
2023/03/15 03:14:30;;;;;;;;;;;13.10;93.90;;;;;;5080702;28;20292;-10
2023/03/15 03:16:57;;;;;;;;;;;13.10;93.90;;;;;;5098966;28;19908;-10
2023/03/15 03:19:24;;;;;;;;;;;13.10;93.80;;;;;;5099434;28;19908;-10
2023/03/15 03:21:52;;;;;;;;;;;13.20;93.80;;;;;;5099101;28;19904;-10
2023/03/15 03:24:17;;;;;;;;;;;13.10;93.80;;;;;;5098992;28;19989;-10
2023/03/15 03:26:56;;;;;;;;;;;13.10;93.80;;;;;;5099006;28;20277;-10
2023/03/15 03:29:22;;;;;;;;;;;13.10;93.80;;;;;;5098764;28;19915;-10
2023/03/15 03:31:48;;;;;;;;;;;13.10;93.70;;;;;;5081351;28;19919;-10
2023/03/15 03:34:14;;;;;;;;;;;13.10;93.70;;;;;;5098588;28;19908;-10
2023/03/15 03:36:47;;;;;;;;;;;13.10;93.70;;;;;;5098351;28;20200;-10
2023/03/15 03:39:15;;;;;;;;;;;13.10;93.70;;;;;;5098525;28;19935;-10
2023/03/15 03:41:41;;;;;;;;;;;13.10;93.70;;;;;;5098880;28;19908;-10
2023/03/15 03:44:06;;;;;;;;;;;13.10;93.70;;;;;;5098724;28;19919;-10
2023/03/15 03:46:35;;;;;;;;;;;13.10;93.70;;;;;;5098279;28;19912;-10
2023/03/15 03:49:00;;;;;;;;;;;13.10;93.70;;;;;;5080868;28;20022;-10
2023/03/15 03:51:26;;;;;;;;;;;13.10;93.70;;;;;;5099109;28;20257;-10
2023/03/15 03:53:51;;;;;;;;;;;13.10;93.70;;;;;;5098924;28;20002;-10
2023/03/15 03:56:24;;;;;;;;;;;13.10;93.60;;;;;;5098027;28;19958;-10
2023/03/15 03:58:52;;;;;;;;;;;13.10;93.70;;;;;;5098480;28;19912;-10
2023/03/15 04:01:17;;;;;;;;;;;13.10;93.70;;;;;;5098865;28;20014;-10
2023/03/15 04:03:43;;;;;;;;;;;13.10;93.60;;;;;;5098445;28;19994;-10
2023/03/15 04:06:11;;;;;;;;;;;13.10;93.70;;;;;;5114177;28;19919;-10
2023/03/15 04:08:37;;;;;;;;;;;13.10;93.60;;;;;;5098438;28;19919;-10
2023/03/15 04:11:02;;;;;;;;;;;13.10;93.60;;;;;;5080348;28;19908;-10
2023/03/15 04:13:28;;;;;;;;;;;13.10;93.60;;;;;;5098475;28;19912;-10
2023/03/15 04:15:57;;;;;;;;;;;13.10;93.60;;;;;;5098615;28;19915;-10
2023/03/15 04:18:23;;;;;;;;;;;13.10;93.60;;;;;;5114535;28;19908;-10
2023/03/15 04:20:48;;;;;;;;;;;13.10;93.60;;;;;;5080544;28;19989;-10
2023/03/15 04:23:14;;;;;;;;;;;13.10;93.60;;;;;;5098048;28;19908;-10
2023/03/15 04:25:42;;;;;;;;;;;13.00;93.50;;;;;;5101312;28;19916;-10
2023/03/15 04:28:09;;;;;;;;;;;13.10;93.60;;;;;;5118755;28;19911;-10
2023/03/15 04:30:35;;;;;;;;;;;13.00;93.50;;;;;;5084681;28;19908;-10
2023/03/15 04:33:02;;;;;;;;;;;13.00;93.50;;;;;;5084754;28;19908;-10
2023/03/15 04:35:29;;;;;;;;;;;13.00;93.50;;;;;;5084569;28;19918;-10
2023/03/15 04:37:55;;;;;;;;;;;13.00;93.50;;;;;;5118663;28;19908;-10
2023/03/15 04:40:22;;;;;;;;;;;13.00;93.50;;;;;;5102290;28;19937;-10
2023/03/15 04:42:54;;;;;;;;;;;13.00;93.50;;;;;;5084820;28;19928;-10
2023/03/15 04:45:23;;;;;;;;;;;13.00;93.50;;;;;;5101882;28;19946;-10
2023/03/15 04:47:49;;;;;;;;;;;13.00;93.70;;;;;;5081579;28;20486;-10
2023/03/15 04:50:15;;;;;;;;;;;13.00;93.40;;;;;;5102073;28;19927;-10
2023/03/15 04:52:41;;;;;;;;;;;13.00;93.40;;;;;;5101638;28;19908;-10
2023/03/15 04:55:07;;;;;;;;;;;13.00;93.40;;;;;;5119097;27;19912;-10
2023/03/15 04:57:33;;;;;;;;;;;13.00;93.40;;;;;;5121605;28;19922;-10
2023/03/15 04:59:58;;;;;;;;;;;13.00;93.40;;;;;;5122010;28;20444;-10
2023/03/15 05:02:27;;;;;;;;;;;13.00;93.40;;;;;;5121560;28;20264;-10
2023/03/15 05:04:52;;;;;;;;;;;13.00;93.40;;;;;;5137877;27;19908;-10
2023/03/15 05:07:18;;;;;;;;;;;13.00;93.40;;;;;;5137881;27;19916;-10
2023/03/15 05:09:44;;;;;;;;;;;13.00;93.40;;;;;;5103309;28;19918;-10
2023/03/15 05:12:11;;;;;;;;;;;13.00;93.40;;;;;;5103925;28;19908;-10
2023/03/15 05:14:36;;;;;;;;;;;13.00;93.40;;;;;;5121443;28;19915;-10
2023/03/15 05:17:02;;;;;;;;;;;13.00;93.40;;;;;;5121315;28;19931;-10
2023/03/15 05:19:28;;;;;;;;;;;13.00;93.40;;;;;;5120842;28;19908;-10
2023/03/15 05:22:05;;;;;;;;;;;13.00;93.40;;;;;;5103111;28;19918;-10
2023/03/15 05:24:30;;;;;;;;;;;13.00;93.40;;;;;;5121033;28;19933;-10
2023/03/15 05:26:56;;;;;;;;;;;13.00;93.40;;;;;;5121011;28;20265;-10
2023/03/15 05:29:24;;;;;;;;;;;13.00;93.40;;;;;;5121274;28;20329;-10
2023/03/15 05:32:08;;;;;;;;;;;13.00;93.40;;;;;;5121613;28;19908;-10
2023/03/15 05:34:34;;;;;;;;;;;13.00;93.40;;;;;;5103408;28;19908;-10
2023/03/15 05:37:07;;;;;;;;;;;13.00;93.40;;;;;;5120325;28;19914;-10
2023/03/15 05:39:33;;;;;;;;;;;13.00;93.50;;;;;;5103066;28;19918;-10
2023/03/15 05:41:59;;;;;;;;;;;13.00;93.50;;;;;;5102922;28;20253;-10
2023/03/15 05:44:24;;;;;;;;;;;12.90;93.50;;;;;;5120459;28;20415;-10
2023/03/15 05:46:59;;;;;;;;;;;12.90;93.60;;;;;;5121055;28;19911;-10
2023/03/15 05:49:24;;;;;;;;;;;12.90;93.60;;;;;;5120888;28;19907;-10
2023/03/15 05:51:50;;;;;;;;;;;12.90;93.70;;;;;;5136840;27;19973;-10
2023/03/15 05:54:18;;;;;;;;;;;12.90;93.70;;;;;;5136473;27;19972;-10
2023/03/15 05:56:44;;;;;;;;;;;12.90;93.70;;;;;;5120306;28;20269;-10
2023/03/15 05:59:10;;;;;;;;;;;12.90;93.70;;;;;;5120201;28;20010;-10
2023/03/15 06:01:35;;;;;;;;;;;12.90;93.70;;;;;;5127152;22;19934;-10
2023/03/15 06:04:01;;;;;;;;;;;12.90;93.70;;;;;;5097195;28;19916;-10
2023/03/15 06:06:26;;;;;;;;;;;12.90;93.70;;;;;;5112145;28;19908;-10
2023/03/15 06:08:55;;;;;;;;;;;12.90;93.70;;;;;;5093088;28;20010;-10
2023/03/15 06:11:23;;;;;;;;;;;12.90;93.70;;;;;;5127800;27;20006;-10
2023/03/15 06:13:51;;;;;;;;;;;12.90;93.70;;;;;;5110860;28;20047;-10
2023/03/15 06:16:17;;;;;;;;;;;12.90;93.70;;;;;;5110570;28;19912;-10
2023/03/15 06:18:43;;;;;;;;;;;12.90;93.70;;;;;;5093645;28;19970;-10
2023/03/15 06:21:08;;;;;;;;;;;12.90;93.70;;;;;;5113941;28;19908;-10
2023/03/15 06:23:33;;;;;;;;;;;12.90;93.70;;;;;;5112542;28;19908;-10
2023/03/15 06:25:59;;;;;;;;;;;12.90;93.80;;;;;;5114183;28;20180;-10
2023/03/15 06:28:27;;;;;;;;;;;12.90;93.80;;;;;;5117214;28;19922;-10
2023/03/15 06:30:52;;;;;;;;;;;12.90;93.80;;;;;;5136977;27;19907;-10
2023/03/15 06:33:21;;;;;;;;;;;12.90;93.80;;;;;;5118587;28;20069;-10
2023/03/15 06:35:47;;;;;;;;;;;12.90;93.80;;;;;;5094458;28;19908;-10
2023/03/15 06:38:14;;;;;;;;;;;12.90;93.90;;;;;;5126827;27;19916;-10
2023/03/15 06:40:42;;;;;;;;;;;12.90;93.80;;;;;;5097888;28;19912;-10
2023/03/15 06:43:08;;;;;;;;;;;12.90;93.80;;;;;;5102144;28;20057;-10
2023/03/15 06:45:33;;;;;;;;;;;12.90;93.80;;;;;;5097286;28;19998;-10
2023/03/15 06:48:02;;;;;;;;;;;12.90;93.80;;;;;;5091786;28;20173;-10
2023/03/15 06:50:27;;;;;;;;;;;12.90;93.80;;;;;;5092589;28;20227;-10
2023/03/15 06:52:53;;;;;;;;;;;12.90;93.80;;;;;;5109140;28;20264;-10
2023/03/15 06:55:19;;;;;;;;;;;12.90;93.80;;;;;;5108522;28;19907;-10
2023/03/15 06:57:45;;;;;;;;;;;12.90;93.80;;;;;;5090368;28;20065;-10
2023/03/15 07:00:16;;;;;;;;;;;12.90;93.80;;;;;;5090705;28;19912;-10
2023/03/15 07:02:41;;;;;;;;;;;12.90;93.70;;;;;;5089453;28;19981;-10
2023/03/15 07:05:07;;;;;;;;;;;13.00;93.80;;;;;;5108735;28;20295;-10
2023/03/15 07:07:33;;;;;;;;;;;13.00;93.80;;;;;;5127146;27;19919;-10
2023/03/15 07:09:58;;;;;;;;;;;13.00;93.80;;;;;;5128717;27;19988;-10
2023/03/15 07:12:24;;;;;;;;;;;13.00;93.80;;;;;;5125449;27;20176;-10
2023/03/15 07:14:49;;;;;;;;;;;13.00;93.70;;;;;;5109228;28;19907;-10
2023/03/15 07:17:15;;;;;;;;;;;13.00;93.70;;;;;;5107131;28;20193;-10
2023/03/15 07:19:41;;;;;;;;;;;13.00;93.70;;;;;;5088432;28;19992;-10
2023/03/15 07:22:06;;;;;;;;;;;13.00;93.60;;;;;;5105726;28;19904;-10
2023/03/15 07:24:33;;;;;;;;;;;13.00;93.70;;;;;;5107183;28;19907;-10
2023/03/15 07:26:58;;;;;;;;;;;13.00;93.70;;;;;;5089383;28;19970;-10
2023/03/15 07:29:24;;;;;;;;;;;13.10;93.80;;;;;;5105713;28;19947;-10
2023/03/15 07:31:53;;;;;;;;;;;13.10;94.00;;;;;;5088345;28;20277;-10
2023/03/15 07:34:18;;;;;;;;;;;13.20;94.10;;;;;;5090181;28;20028;-10
2023/03/15 07:36:44;;;;;;;;;;;13.30;94.10;;;;;;5123519;27;20399;-10
2023/03/15 07:39:10;;;;;;;;;;;13.40;94.00;;;;;;5106535;28;19938;-10
2023/03/15 07:41:36;;;;;;;;;;;13.40;93.90;;;;;;5107017;28;20222;-10
2023/03/15 07:44:01;;;;;;;;;;;13.30;93.80;;;;;;5105154;28;19916;-11
2023/03/15 07:46:30;;;;;;;;;;;13.40;93.80;;;;;;5089127;28;20016;-11
2023/03/15 07:48:55;;;;;;;;;;;13.40;93.60;;;;;;5106682;28;19943;-11
2023/03/15 07:51:21;;;;;;;;;;;13.40;93.40;;;;;;5104481;28;19912;-11
2023/03/15 07:53:46;;;;;;;;;;;13.40;93.20;;;;;;5087004;28;19908;-11
2023/03/15 07:56:12;;;;;;;;;;;13.40;93.20;;;;;;5086790;28;19916;-11
2023/03/15 07:58:38;;;;;;;;;;;13.40;93.10;;;;;;5105529;28;19908;-11
2023/03/15 08:01:06;;;;;;;;;;;13.40;93.10;;;;;;5088251;28;20022;-11
2023/03/15 08:03:32;;;;;;;;;;;13.40;93.00;;;;;;5104741;28;20045;-11
2023/03/15 08:05:57;;;;;;;;;;;13.40;93.20;;;;;;5106655;28;20002;-11
2023/03/15 08:08:26;;;;;;;;;;;13.40;92.90;;;;;;5108341;28;19984;-11
2023/03/15 08:10:54;;;;;;;;;;;13.40;92.80;;;;;;5110333;28;19912;-11
2023/03/15 08:13:20;;;;;;;;;;;13.50;92.70;;;;;;5091637;28;19907;-11
2023/03/15 08:15:46;;;;;;;;;;;13.60;92.40;;;;;;5091358;28;20173;-11
2023/03/15 08:18:12;;;;;;;;;;;13.90;92.10;;;;;;5092591;28;19939;-11
2023/03/15 08:20:38;;;;;;;;;;;14.90;89.70;;;;;;5092817;28;20272;-11
2023/03/15 08:23:03;;;;;;;;;;;15.50;86.50;;;;;;5109859;28;19916;-11
2023/03/15 08:25:32;;;;;;;;;;;16.10;79.80;;;;;;5090498;28;20241;-11
2023/03/15 08:27:57;;;;;;;;;;;16.00;78.80;;;;;;5091262;28;20026;-11
2023/03/15 08:30:23;;;;;;;;;;;16.50;77.60;;;;;;5091246;28;20011;-11
2023/03/15 08:32:51;;;;;;;;;;;16.60;74.80;;;;;;5106981;28;20162;-10
2023/03/15 08:35:20;;;;;;;;;;;17.40;72.00;;;;;;5105630;28;19979;-11
2023/03/15 08:37:46;;;;;;;;;;;19.00;65.70;;;;;;5086991;28;20047;-11
2023/03/15 08:40:13;;;;;;;;;;;19.80;60.40;;;;;;5089168;28;20002;-10
2023/03/15 08:42:38;;;;;;;;;;;20.30;57.80;;;;;;5107277;28;19907;-11
2023/03/15 08:45:05;;;;;;;;;;;20.00;58.10;;;;;;5109364;28;20373;-11
2023/03/15 08:47:37;;;;;;;;;;;19.80;57.20;;;;;;5108392;28;19947;-11
2023/03/15 08:50:08;;;;;;;;;;;18.80;58.20;;;;;;5091230;28;19976;-11
2023/03/15 08:52:36;;;;;;;;;;;17.90;60.00;;;;;;5109155;28;19943;-11
2023/03/15 08:55:03;;;;;;;;;;;17.30;63.30;;;;;;5091751;28;20017;-11
2023/03/15 08:57:31;;;;;;;;;;;16.90;66.20;;;;;;5109792;28;20011;-10
2023/03/15 09:00:06;;;;;;;;;;;17.20;67.50;;;;;;5092497;28;19908;-10
2023/03/15 09:02:32;;;;;;;;;;;18.70;64.10;;;;;;5091536;28;19926;-10
2023/03/15 09:04:58;;;;;;;;;;;20.40;58.80;;;;;;5125394;28;19908;-10
2023/03/15 09:07:23;;;;;;;;;;;21.50;56.30;;;;;;5110358;28;20080;-10
2023/03/15 09:09:53;;;;;;;;;;;22.30;54.40;;;;;;5091663;28;19908;-10
2023/03/15 09:12:19;;;;;;;;;;;23.00;52.90;;;;;;5093393;28;20358;-11
2023/03/15 09:14:44;;;;;;;;;;;23.50;51.70;;;;;;5094020;28;19912;-10
2023/03/15 09:17:10;;;;;;;;;;;24.00;50.70;;;;;;5112222;28;19908;-17
2023/03/15 09:19:35;;;;;;;;;;;24.40;49.80;;;;;;5128549;27;20185;-10
2023/03/15 09:22:04;;;;;;;;;;;24.80;49.10;;;;;;5095448;28;19904;-11
2023/03/15 09:24:30;;;;;;;;;;;25.00;48.40;;;;;;5096049;28;19915;-11
2023/03/15 09:26:55;;;;;;;;;;;24.50;47.80;;;;;;5091956;28;19912;-10
2023/03/15 09:29:21;;;;;;;;;;;22.80;48.80;;;;;;5095839;28;19912;-10
2023/03/15 09:31:46;;;;;;;;;;;21.50;50.30;;;;;;5117201;28;19976;-10
2023/03/15 09:34:12;;;;;;;;;;;21.20;51.70;;;;;;5136250;27;20014;-11
2023/03/15 09:36:37;;;;;;;;;;;21.40;52.00;;;;;;5102700;28;19943;-11
2023/03/15 09:39:03;;;;;;;;;;;22.00;51.40;;;;;;5114689;28;20192;-11
2023/03/15 09:41:41;;;;;;;;;;;21.30;51.10;;;;;;5117065;28;20508;-11
2023/03/15 09:44:11;;;;;;;;;;;22.60;51.20;;;;;;5119042;28;19912;-11
2023/03/15 09:46:56;;;;;;;;;;;23.60;49.80;;;;;;5101733;28;19912;-10
2023/03/15 09:49:30;;;;;;;;;;;23.30;48.90;;;;;;5110574;28;19908;-10
2023/03/15 09:51:59;;;;;;;;;;;21.60;50.20;;;;;;5110326;28;20006;-11
2023/03/15 09:54:31;;;;;;;;;;;20.30;51.70;;;;;;5110637;28;20470;-10
2023/03/15 09:56:56;;;;;;;;;;;19.50;53.00;;;;;;5116784;28;20037;-10
2023/03/15 09:59:28;;;;;;;;;;;19.90;54.20;;;;;;5101182;28;20219;-11
2023/03/15 10:01:58;;;;;;;;;;;20.90;53.00;;;;;;5100733;28;19927;-10
2023/03/15 10:04:27;;;;;;;;;;;20.40;52.60;;;;;;5118922;28;19922;-10
2023/03/15 10:06:55;;;;;;;;;;;19.60;53.30;;;;;;5118697;28;19916;-11
2023/03/15 10:09:25;;;;;;;;;;;19.00;54.50;;;;;;5100892;28;19923;-11
2023/03/15 10:11:54;;;;;;;;;;;18.50;55.50;;;;;;5101618;28;19912;-11
2023/03/15 10:14:41;;;;;;;;;;;18.20;56.50;;;;;;5118456;28;19912;-11
2023/03/15 10:17:15;;;;;;;;;;;17.80;57.30;;;;;;5119414;28;20376;-11
2023/03/15 10:19:57;;;;;;;;;;;17.50;58.30;;;;;;5101022;28;20017;-11
2023/03/15 10:22:29;;;;;;;;;;;17.40;59.20;;;;;;5117538;28;19908;-11
2023/03/15 10:25:17;;;;;;;;;;;17.40;59.60;;;;;;5099916;28;20499;-11
2023/03/15 10:27:46;;;;;;;;;;;17.40;59.80;;;;;;5117843;28;20322;-11
2023/03/15 10:30:14;;;;;;;;;;;17.50;59.90;;;;;;5118270;28;20002;-11
2023/03/15 10:32:42;;;;;;;;;;;17.40;60.30;;;;;;5118510;28;19919;-11
2023/03/15 10:35:15;;;;;;;;;;;17.40;60.90;;;;;;5100747;28;19951;-11
2023/03/15 10:37:43;;;;;;;;;;;17.30;61.60;;;;;;5117961;28;19950;-11
2023/03/15 10:40:14;;;;;;;;;;;17.30;61.90;;;;;;5134583;27;20015;-11
2023/03/15 10:42:44;;;;;;;;;;;17.40;62.20;;;;;;5100902;28;19912;-11
2023/03/15 10:45:12;;;;;;;;;;;17.40;62.50;;;;;;5118019;28;19990;-11
2023/03/15 10:47:44;;;;;;;;;;;17.40;62.60;;;;;;5118039;28;19916;-11
2023/03/15 10:50:15;;;;;;;;;;;17.40;62.80;;;;;;5100159;28;19912;-11
2023/03/15 10:52:44;;;;;;;;;;;17.40;62.80;;;;;;5083375;28;19915;-12
2023/03/15 10:55:11;;;;;;;;;;;17.40;62.90;;;;;;5098384;28;20204;-11
2023/03/15 10:57:38;;;;;;;;;;;17.40;62.90;;;;;;5117549;28;19919;-12
2023/03/15 11:00:19;;;;;;;;;;;17.40;63.00;;;;;;5100720;28;19919;-11
2023/03/15 11:02:49;;;;;;;;;;;17.40;63.00;;;;;;5117507;28;19916;-11
2023/03/15 11:05:16;;;;;;;;;;;17.30;63.30;;;;;;5100605;28;19908;-11
2023/03/15 11:07:55;;;;;;;;;;;17.20;63.70;;;;;;5099731;28;19920;-11
2023/03/15 11:10:22;;;;;;;;;;;17.20;64.00;;;;;;5117780;28;20380;-11
2023/03/15 11:12:48;;;;;;;;;;;17.20;64.20;;;;;;5101184;28;20272;-11
2023/03/15 11:15:14;;;;;;;;;;;17.30;64.20;;;;;;5118590;28;19915;-11
2023/03/15 11:17:44;;;;;;;;;;;17.30;64.10;;;;;;5118233;28;19912;-11
2023/03/15 11:20:30;;;;;;;;;;;17.30;64.20;;;;;;5118290;28;19939;-11
2023/03/15 11:22:56;;;;;;;;;;;17.20;64.30;;;;;;5118357;28;19916;-11
2023/03/15 11:25:23;;;;;;;;;;;17.30;64.40;;;;;;5118633;28;19916;-11
2023/03/15 11:27:52;;;;;;;;;;;17.30;64.50;;;;;;5114400;28;20235;-11
2023/03/15 11:30:20;;;;;;;;;;;17.30;64.50;;;;;;5108446;28;19918;-11
2023/03/15 11:32:46;;;;;;;;;;;17.20;64.70;;;;;;5106099;28;20472;-11
2023/03/15 11:35:18;;;;;;;;;;;17.20;65.00;;;;;;5104451;28;19954;-11
2023/03/15 11:37:43;;;;;;;;;;;17.20;65.40;;;;;;5105467;28;19951;-11
2023/03/15 11:40:31;;;;;;;;;;;17.10;65.70;;;;;;5087145;28;20311;-11
2023/03/15 11:43:02;;;;;;;;;;;17.10;66.60;;;;;;5087952;28;19915;-11
2023/03/15 11:45:37;;;;;;;;;;;17.10;66.30;;;;;;5110308;28;20320;-11
2023/03/15 11:48:22;;;;;;;;;;;17.10;66.50;;;;;;5115645;28;19922;-11
2023/03/15 11:50:54;;;;;;;;;;;17.00;66.70;;;;;;5114932;28;19926;-11
2023/03/15 11:53:22;;;;;;;;;;;17.00;67.10;;;;;;5107793;28;20170;-11
2023/03/15 11:55:49;;;;;;;;;;;17.00;67.50;;;;;;5106932;28;20053;-11
2023/03/15 11:58:29;;;;;;;;;;;16.90;68.10;;;;;;5088621;28;19919;-11
2023/03/15 12:01:00;;;;;;;;;;;16.80;68.70;;;;;;5107602;28;19949;-11
2023/03/15 12:03:27;;;;;;;;;;;16.70;69.20;;;;;;5108751;28;19972;-11
2023/03/15 12:06:13;;;;;;;;;;;16.70;69.80;;;;;;5091057;28;20088;-11
2023/03/15 12:08:40;;;;;;;;;;;16.60;70.10;;;;;;5093496;28;19912;-11
2023/03/15 12:11:29;;;;;;;;;;;16.60;70.60;;;;;;5090642;28;20136;-11
2023/03/15 12:14:00;;;;;;;;;;;16.50;71.00;;;;;;5097245;28;19919;-11
2023/03/15 12:16:41;;;;;;;;;;;16.50;71.40;;;;;;5091471;28;19908;-11
2023/03/15 12:19:14;;;;;;;;;;;16.50;71.50;;;;;;5090606;28;20283;-11
2023/03/15 12:21:45;;;;;;;;;;;16.50;71.70;;;;;;5106167;28;19944;-11
2023/03/15 12:24:16;;;;;;;;;;;16.50;71.90;;;;;;5088142;28;20334;-11
2023/03/15 12:26:45;;;;;;;;;;;16.50;72.10;;;;;;5105659;28;19908;-11
2023/03/15 12:29:14;;;;;;;;;;;16.50;72.40;;;;;;5105454;28;19908;-11
2023/03/15 12:31:44;;;;;;;;;;;16.50;72.70;;;;;;5088468;28;20205;-11
2023/03/15 12:34:14;;;;;;;;;;;16.50;72.80;;;;;;5087015;28;20020;-11
2023/03/15 12:36:44;;;;;;;;;;;16.40;73.10;;;;;;5088093;28;19908;-11
2023/03/15 12:39:15;;;;;;;;;;;16.40;73.50;;;;;;5121887;28;19912;-11
2023/03/15 12:41:42;;;;;;;;;;;16.40;74.00;;;;;;5106173;28;19908;-11
2023/03/15 12:44:16;;;;;;;;;;;16.40;74.20;;;;;;5106055;28;20268;-11
2023/03/15 12:46:42;;;;;;;;;;;16.40;74.40;;;;;;5094125;28;19922;-11
2023/03/15 12:49:13;;;;;;;;;;;16.40;74.80;;;;;;5110262;28;19908;-11
2023/03/15 12:51:44;;;;;;;;;;;16.30;74.90;;;;;;5090983;28;19908;-11
2023/03/15 12:54:13;;;;;;;;;;;16.40;75.10;;;;;;5107238;28;19979;-11
2023/03/15 12:56:49;;;;;;;;;;;16.40;75.20;;;;;;5090172;28;19908;-11
2023/03/15 12:59:29;;;;;;;;;;;16.40;75.30;;;;;;5110288;28;19923;-11
2023/03/15 13:01:55;;;;;;;;;;;16.40;75.40;;;;;;5089411;28;19946;-11
2023/03/15 13:04:21;;;;;;;;;;;16.40;75.60;;;;;;5108316;28;20158;-10
2023/03/15 13:06:50;;;;;;;;;;;16.40;75.50;;;;;;5110977;28;19908;-10
2023/03/15 13:09:15;;;;;;;;;;;16.40;75.60;;;;;;5093855;28;19948;-10
2023/03/15 13:11:58;;;;;;;;;;;16.40;75.70;;;;;;5091382;28;19922;-10
2023/03/15 13:14:45;;;;;;;;;;;16.40;75.80;;;;;;5110881;28;19916;-10
2023/03/15 13:17:20;;;;;;;;;;;16.40;75.90;;;;;;5090173;28;20248;-10
2023/03/15 13:19:48;;;;;;;;;;;16.40;76.10;;;;;;5108668;28;20340;-10
2023/03/15 13:22:20;;;;;;;;;;;16.40;76.30;;;;;;5106335;27;20281;-10
2023/03/15 13:24:45;;;;;;;;;;;16.40;76.50;;;;;;5119763;28;19947;-10
2023/03/15 13:27:14;;;;;;;;;;;16.40;76.70;;;;;;5118916;28;19955;-10
2023/03/15 13:29:39;;;;;;;;;;;16.40;76.90;;;;;;5097547;28;20008;-10
2023/03/15 13:32:12;;;;;;;;;;;16.40;77.10;;;;;;5127851;27;20314;-10
2023/03/15 13:34:37;;;;;;;;;;;16.40;77.30;;;;;;5117370;28;20284;-10
2023/03/15 13:37:03;;;;;;;;;;;16.30;77.50;;;;;;5126836;27;19919;-10
2023/03/15 13:39:30;;;;;;;;;;;16.40;78.40;;;;;;5091420;28;19913;-10
2023/03/15 13:42:16;;;;;;;;;;;16.40;78.00;;;;;;5066187;28;19977;-10
2023/03/15 13:44:41;;;;;;;;;;;16.40;78.20;;;;;;5077082;28;19924;-10
2023/03/15 13:47:07;;;;;;;;;;;16.40;78.40;;;;;;5078917;28;19912;-10
2023/03/15 13:49:33;;;;;;;;;;;16.40;78.50;;;;;;5078209;28;20335;-10
2023/03/15 13:52:10;;;;;;;;;;;16.40;78.70;;;;;;5077654;28;19908;-10
2023/03/15 13:54:36;;;;;;;;;;;16.30;78.80;;;;;;5076295;28;19916;-10
2023/03/15 13:57:06;;;;;;;;;;;16.30;79.10;;;;;;5075205;28;19912;-10
2023/03/15 13:59:36;;;;;;;;;;;16.30;79.30;;;;;;5077679;28;19919;-10
2023/03/15 14:02:04;;;;;;;;;;;16.30;79.40;;;;;;5074686;28;19924;-10
2023/03/15 14:04:38;;;;;;;;;;;16.30;79.60;;;;;;5070447;28;20278;-10
2023/03/15 14:07:15;;;;;;;;;;;16.30;79.70;;;;;;5066646;28;19970;-10
2023/03/15 14:09:41;;;;;;;;;;;16.30;79.90;;;;;;5067914;28;20003;-11
2023/03/15 14:12:16;;;;;;;;;;;16.30;80.10;;;;;;5065187;28;20012;-11
2023/03/15 14:14:51;;;;;;;;;;;16.30;80.30;;;;;;5066765;28;19909;-11
2023/03/15 14:17:24;;;;;;;;;;;16.30;80.50;;;;;;5065433;28;20476;-11
2023/03/15 14:19:54;;;;;;;;;;;16.20;80.70;;;;;;5067134;28;20213;-11
2023/03/15 14:22:20;;;;;;;;;;;16.20;81.00;;;;;;5068323;28;19959;-11
2023/03/15 14:24:47;;;;;;;;;;;16.30;81.00;;;;;;5068535;28;19956;-10
2023/03/15 14:27:19;;;;;;;;;;;16.30;81.20;;;;;;5069515;28;20301;-10
2023/03/15 14:29:53;;;;;;;;;;;16.30;81.40;;;;;;5069158;28;19913;-10